Air Navigation Services of Czech Republic  
Last data update:  25.03.2019 22:08:07 UTC Česká verze
   METEO Page displayed:  25.03.2019 22:08:17 UTC  
help
METAR EDDB 252150Z 33008KT CAVOK 04/01 Q1022 NOSIG=
METAR EDDC 252150Z 29006KT 260V320 9999 FEW031 02/01 Q1021=
METAR EDDE 252150Z 28009KT 9999 SCT033 02/01 Q1024=
METAR EDDF 252150Z 28008KT 9999 FEW030 04/03 Q1027 NOSIG=
METAR EDDM 252150Z 26008KT 9999 BKN033 03/01 Q1023 NOSIG=
METAR EDDN 252150Z 34007KT 9999 FEW012 BKN045 02/01 Q1024=
METAR EDDP 252150Z 30009KT 9999 BKN025 04/03 Q1023 NOSIG=
METAR EDDT 252150Z 31004KT 270V350 CAVOK 04/01 Q1022 NOSIG=
METAR EDQM NIL
METAR EPBY 252200Z 32007KT CAVOK 02/00 Q1017=
METAR EPGD 252200Z 33008KT 9999 SCT011 BKN016 02/00 Q1016=
METAR EPKK 252200Z 26007KT 220V290 9999 BKN026 04/M00 Q1015=
METAR EPKT 252200Z 28010KT 9999 SCT018 BKN024 03/M01 Q1015=
METAR EPLL 252200Z 31006KT 280V350 9999 BKN006 OVC007 03/02 Q1016=
METAR EPPO 252200Z 32006KT 9999 SCT043 02/01 Q1018=
METAR EPRZ 252200Z 27007KT 8000 NSC 03/02 Q1014=
METAR EPWA 252200Z 30005KT 9999 FEW027 00/M01 Q1014 NOSIG=
METAR EPWR 252200Z 30010KT 9999 SCT008 FEW014CB BKN030 02/01 Q1019 RESHRA=
METAR LHBP 252200Z 30014KT CAVOK 07/M02 Q1016 NOSIG=
METAR LHSM NIL
METAR LKBC 252200Z AUTO 29010KT 9999 FEW012 OVC019 02/00 Q1019=
METAR LKCV 252200Z 31011KT 9999 SCT045 OVC060 04/01 Q1020 NOSIG RMK BLU BLU=
METAR LKKB 252200Z 32010KT 290V350 9999 FEW017 BKN023 04/M01 Q1020 RMK WHT=
METAR LKKU NIL
METAR LKKV 252200Z 32007KT 9999 BKN033 01/M01 Q1021 RMK REG QNH 1014=
METAR LKLN 252200Z AUTO 28004KT 250V320 9999 SCT045 02/M00 Q1022=
METAR LKMT 252200Z VRB02KT 9999 FEW023 SCT031 03/M01 Q1018 NOSIG RMK REG QNH 1014=
METAR LKNA 252200Z 31016KT 9999 FEW014 02/M00 Q1017 RMK BLU=
METAR LKPD 252200Z 29008KT CAVOK 04/00 Q1019 RMK BLU=
METAR LKPJ 252200Z AUTO 12003KT CAVOK 01/M02 Q1018=
METAR LKPR 252200Z 33009KT 9999 BKN020 03/M00 Q1021 NOSIG RMK REG QNH 1014=
METAR LKTB 252200Z 31004KT 9999 FEW030 03/M01 Q1018 NOSIG RMK REG QNH 1014=
METAR LKVO NIL
METAR LOWI 252150Z VRB01KT 9999 -SN FEW010 SCT040 BKN070 02/M00 Q1022 NOSIG=
METAR LOWL 252150Z AUTO 28009KT 9999 FEW018 BKN020 04/01 Q1021 NOSIG=
METAR LOWS 252150Z 29010KT 260V320 9999 FEW007 SCT035 BKN050 03/M00 Q1022 NOSIG=
METAR LOWW 252150Z 30012KT 9999 SCT046 BKN060 06/M01 Q1019 NOSIG=
METAR LZIB 252200Z VRB02KT CAVOK 06/M01 Q1019=
METAR LZKZ 252200Z 32011KT CAVOK 06/M02 Q1014=
METAR LZMC 252100Z 02002KT CAVOK 03/M02 Q1019=
METAR LZPP 252200Z AUTO 36004KT 9999 OVC190/// 03/M01 Q1018=
METAR LZSL 252200Z 33009KT 9999 FEW052 05/M03 Q1016=
METAR LZTT 252200Z VRB02KT 9999 -SHSN SCT036 BKN050 01/M03 Q1013=
METAR LZZI 252200Z VRB02KT 9999 SCT030 BKN040 04/M02 Q1017=